<?xml version='1.0' encoding='UTF-8'?><gpx version="1.1" creator="JPX - https://github.com/jenetics/jpx" xmlns="http://www.topografix.com/GPX/1/1"><trk><trkseg><trkpt lat="43.83005243208796" lon="11.580419690041616"><ele>611.4285714285714</ele><time>2026-05-01T09:40:45.999Z</time></trkpt><trkpt lat="43.83010224985801" lon="11.580347700707357"><ele>609.8571428571429</ele><time>2026-05-01T09:40:51.999Z</time></trkpt><trkpt lat="43.830104638394424" lon="11.58025939823265"><ele>608.2857142857142</ele><time>2026-05-01T09:41:04Z</time></trkpt><trkpt lat="43.8301508454836" lon="11.580178376443849"><ele>606.7142857142858</ele><time>2026-05-01T09:41:23Z</time></trkpt><trkpt lat="43.83012612668388" lon="11.580095155148552"><ele>605.1428571428571</ele><time>2026-05-01T09:41:39Z</time></trkpt><trkpt lat="43.830091106771114" lon="11.580172000889714"><ele>603.5714285714286</ele><time>2026-05-01T09:41:45Z</time></trkpt><trkpt lat="43.83006650398152" lon="11.580261361242783"><ele>602.0</ele><time>2026-05-01T09:42:37.001Z</time></trkpt><trkpt lat="43.8301253355852" lon="11.580189046671215"><ele>601.5714285714286</ele><time>2026-05-01T09:42:54Z</time></trkpt><trkpt lat="43.8300628269987" lon="11.580217698046631"><ele>601.1428571428571</ele><time>2026-05-01T09:43:26Z</time></trkpt><trkpt lat="43.8301215298375" lon="11.580181072022524"><ele>600.7142857142858</ele><time>2026-05-01T09:43:45Z</time></trkpt><trkpt lat="43.83006266979008" lon="11.580238730910741"><ele>600.2857142857142</ele><time>2026-05-01T09:44:00.001Z</time></trkpt><trkpt lat="43.83013273823065" lon="11.580192845968947"><ele>599.8571428571429</ele><time>2026-05-01T09:44:15.001Z</time></trkpt><trkpt lat="43.83007162990057" lon="11.580250997331431"><ele>599.4285714285714</ele><time>2026-05-01T09:44:49.001Z</time></trkpt><trkpt lat="43.83011691992195" lon="11.580187669089247"><ele>599.0</ele><time>2026-05-01T09:44:59Z</time></trkpt><trkpt lat="43.8301030929596" lon="11.580297061990624"><ele>601.0</ele><time>2026-05-01T09:46:11.001Z</time></trkpt><trkpt lat="43.83006601238382" lon="11.580378983245204"><ele>603.0</ele><time>2026-05-01T09:46:18.001Z</time></trkpt><trkpt lat="43.83002389513042" lon="11.580455433484785"><ele>605.0</ele><time>2026-05-01T09:46:28.001Z</time></trkpt><trkpt lat="43.82999035881367" lon="11.580532911915746"><ele>607.0</ele><time>2026-05-01T09:46:42.001Z</time></trkpt><trkpt lat="43.829979816184505" lon="11.580627904788152"><ele>609.0</ele><time>2026-05-01T09:46:49.001Z</time></trkpt><trkpt lat="43.82994250676134" lon="11.580710454128301"><ele>611.0</ele><time>2026-05-01T09:47:25Z</time></trkpt><trkpt lat="43.82995158894179" lon="11.580800279765612"><ele>613.0</ele><time>2026-05-01T09:47:32Z</time></trkpt><trkpt lat="43.83002712847837" lon="11.58075343229249"><ele>613.0</ele><time>2026-05-01T09:47:47Z</time></trkpt><trkpt lat="43.83009639824596" lon="11.5807370200568"><ele>613.0</ele><time>2026-05-01T09:48:03.001Z</time></trkpt><trkpt lat="43.83016485598102" lon="11.580754667295958"><ele>613.0</ele><time>2026-05-01T09:48:17.001Z</time></trkpt><trkpt lat="43.83023716451218" lon="11.580773357274738"><ele>613.0</ele><time>2026-05-01T09:48:24.001Z</time></trkpt><trkpt lat="43.83022678800273" lon="11.580679721965753"><ele>613.0</ele><time>2026-05-01T09:48:32.001Z</time></trkpt><trkpt lat="43.83027408467593" lon="11.58061678628305"><ele>613.0</ele><time>2026-05-01T09:48:41.001Z</time></trkpt><trkpt lat="43.830303405234126" lon="11.58053404264703"><ele>613.0</ele><time>2026-05-01T09:48:45.001Z</time></trkpt><trkpt lat="43.83033667541208" lon="11.580451184951027"><ele>613.0</ele><time>2026-05-01T09:48:53.001Z</time></trkpt><trkpt lat="43.83028481272639" lon="11.580397214462426"><ele>613.0</ele><time>2026-05-01T09:48:57.001Z</time></trkpt><trkpt lat="43.83026827471111" lon="11.58029353293942"><ele>613.0</ele><time>2026-05-01T09:49:05Z</time></trkpt><trkpt lat="43.83023558991432" lon="11.580212753736333"><ele>613.0</ele><time>2026-05-01T09:49:10Z</time></trkpt><trkpt lat="43.83017816996447" lon="11.580174927843563"><ele>613.0</ele><time>2026-05-01T09:49:18Z</time></trkpt><trkpt lat="43.83012006710922" lon="11.580220498681076"><ele>613.0</ele><time>2026-05-01T09:49:40Z</time></trkpt><trkpt lat="43.83010159696089" lon="11.580308608157747"><ele>613.0</ele><time>2026-05-01T09:50:42.001Z</time></trkpt><trkpt lat="43.83005250947627" lon="11.580382428397426"><ele>613.0</ele><time>2026-05-01T09:50:50.001Z</time></trkpt><trkpt lat="43.83003066813249" lon="11.58046921104032"><ele>613.0</ele><time>2026-05-01T09:51:00.001Z</time></trkpt><trkpt lat="43.83000044126323" lon="11.580553641004567"><ele>613.0</ele><time>2026-05-01T09:51:08Z</time></trkpt><trkpt lat="43.82995049561572" lon="11.580687160929044"><ele>613.0</ele><time>2026-05-01T09:51:19Z</time></trkpt><trkpt lat="43.830003408877495" lon="11.580737656273108"><ele>613.0</ele><time>2026-05-01T09:51:34Z</time></trkpt><trkpt lat="43.83006590093373" lon="11.580748492878971"><ele>613.0</ele><time>2026-05-01T09:51:40Z</time></trkpt><trkpt lat="43.8301327611389" lon="11.580726110729973"><ele>613.0</ele><time>2026-05-01T09:51:46Z</time></trkpt><trkpt lat="43.83019901480588" lon="11.580763286037035"><ele>614.0</ele><time>2026-05-01T09:51:52Z</time></trkpt><trkpt lat="43.830252664151246" lon="11.580704492688367"><ele>615.0</ele><time>2026-05-01T09:52:01Z</time></trkpt><trkpt lat="43.83027074298484" lon="11.58061147638347"><ele>616.0</ele><time>2026-05-01T09:52:05.001Z</time></trkpt><trkpt lat="43.8302972515164" lon="11.580528879659019"><ele>617.0</ele><time>2026-05-01T09:52:10.001Z</time></trkpt><trkpt lat="43.83032247040953" lon="11.580433988651107"><ele>618.0</ele><time>2026-05-01T09:52:18.001Z</time></trkpt><trkpt lat="43.83027822950378" lon="11.580357354877938"><ele>619.0</ele><time>2026-05-01T09:52:27.001Z</time></trkpt><trkpt lat="43.830259065360806" lon="11.580268077421959"><ele>620.0</ele><time>2026-05-01T09:52:32.001Z</time></trkpt><trkpt lat="43.83020063485069" lon="11.580225380198042"><ele>619.0</ele><time>2026-05-01T09:52:38.001Z</time></trkpt><trkpt lat="43.83016498536138" lon="11.580147888179855"><ele>618.0</ele><time>2026-05-01T09:52:45.001Z</time></trkpt><trkpt lat="43.83014106604951" lon="11.580229557552224"><ele>617.0</ele><time>2026-05-01T09:52:54.001Z</time></trkpt><trkpt lat="43.830102208392034" lon="11.580305178517458"><ele>616.0</ele><time>2026-05-01T09:53:01.001Z</time></trkpt><trkpt lat="43.830059378900586" lon="11.580384026194698"><ele>615.0</ele><time>2026-05-01T09:53:06.001Z</time></trkpt><trkpt lat="43.830009057180874" lon="11.580469709571933"><ele>614.0</ele><time>2026-05-01T09:53:23Z</time></trkpt><trkpt lat="43.83000045986677" lon="11.580570970954922"><ele>613.0</ele><time>2026-05-01T09:53:28Z</time></trkpt><trkpt lat="43.829965093700274" lon="11.580670867115778"><ele>613.0</ele><time>2026-05-01T09:53:36Z</time></trkpt><trkpt lat="43.82993863173013" lon="11.58075304565304"><ele>613.0</ele><time>2026-05-01T09:53:42Z</time></trkpt><trkpt lat="43.83000551881178" lon="11.58076859055319"><ele>613.0</ele><time>2026-05-01T09:53:49Z</time></trkpt><trkpt lat="43.830075602253025" lon="11.580747741780854"><ele>613.0</ele><time>2026-05-01T09:53:56Z</time></trkpt><trkpt lat="43.83013645775221" lon="11.580722626125459"><ele>613.0</ele><time>2026-05-01T09:54:08Z</time></trkpt><trkpt lat="43.83020080109807" lon="11.580760616837903"><ele>613.0</ele><time>2026-05-01T09:54:18.001Z</time></trkpt><trkpt lat="43.830234746025134" lon="11.580672454421736"><ele>613.0</ele><time>2026-05-01T09:54:26.001Z</time></trkpt><trkpt lat="43.83027950768768" lon="11.580607473845271"><ele>614.0</ele><time>2026-05-01T09:54:31.001Z</time></trkpt><trkpt lat="43.8303219360545" lon="11.580539837427288"><ele>615.0</ele><time>2026-05-01T09:54:36.001Z</time></trkpt><trkpt lat="43.83031174804729" lon="11.580451385202858"><ele>616.0</ele><time>2026-05-01T09:54:39.001Z</time></trkpt><trkpt lat="43.830259056527396" lon="11.58035894452498"><ele>617.0</ele><time>2026-05-01T09:54:45.001Z</time></trkpt><trkpt lat="43.83031744672297" lon="11.580406846507145"><ele>618.0</ele><time>2026-05-01T09:54:52.001Z</time></trkpt><trkpt lat="43.83026982269719" lon="11.580310514766277"><ele>619.0</ele><time>2026-05-01T09:55:05.001Z</time></trkpt><trkpt lat="43.830220868569356" lon="11.580250493700271"><ele>620.0</ele><time>2026-05-01T09:55:10.001Z</time></trkpt><trkpt lat="43.83017261289627" lon="11.58018799531179"><ele>619.0</ele><time>2026-05-01T09:55:17.001Z</time></trkpt><trkpt lat="43.83013332964322" lon="11.580257287833538"><ele>618.0</ele><time>2026-05-01T09:55:24Z</time></trkpt><trkpt lat="43.83009147503479" lon="11.580341447139986"><ele>617.0</ele><time>2026-05-01T09:55:30Z</time></trkpt><trkpt lat="43.83005782603368" lon="11.58042316272803"><ele>616.0</ele><time>2026-05-01T09:55:41Z</time></trkpt><trkpt lat="43.83001147890164" lon="11.580499665146126"><ele>615.0</ele><time>2026-05-01T09:55:48Z</time></trkpt><trkpt lat="43.8299955780848" lon="11.58059337670078"><ele>614.0</ele><time>2026-05-01T09:55:54Z</time></trkpt><trkpt lat="43.829959551161124" lon="11.580691456623306"><ele>613.0</ele><time>2026-05-01T09:56:01Z</time></trkpt><trkpt lat="43.83001574576505" lon="11.580742051205323"><ele>613.0</ele><time>2026-05-01T09:56:20.001Z</time></trkpt><trkpt lat="43.83012101789407" lon="11.580715519123029"><ele>613.0</ele><time>2026-05-01T09:56:32.001Z</time></trkpt><trkpt lat="43.83017998751619" lon="11.580747535705441"><ele>613.0</ele><time>2026-05-01T09:56:38.001Z</time></trkpt><trkpt lat="43.830227556894904" lon="11.58068300381236"><ele>613.0</ele><time>2026-05-01T09:56:44.001Z</time></trkpt><trkpt lat="43.830231819168795" lon="11.580564694746807"><ele>613.0</ele><time>2026-05-01T09:56:50.001Z</time></trkpt><trkpt lat="43.830241259407416" lon="11.580462047889469"><ele>613.0</ele><time>2026-05-01T09:56:54.001Z</time></trkpt><trkpt lat="43.830333900529325" lon="11.580491453844402"><ele>613.0</ele><time>2026-05-01T09:56:58.001Z</time></trkpt><trkpt lat="43.83027058275191" lon="11.580298199126283"><ele>613.0</ele><time>2026-05-01T09:57:09.001Z</time></trkpt><trkpt lat="43.83020880835543" lon="11.58023448073621"><ele>613.0</ele><time>2026-05-01T09:57:16.001Z</time></trkpt><trkpt lat="43.8301559889709" lon="11.580179504476643"><ele>613.0</ele><time>2026-05-01T09:57:24.001Z</time></trkpt><trkpt lat="43.83012939459158" lon="11.580264518731548"><ele>613.0</ele><time>2026-05-01T09:57:31Z</time></trkpt><trkpt lat="43.83008891290778" lon="11.580345685771789"><ele>613.0</ele><time>2026-05-01T09:57:38Z</time></trkpt><trkpt lat="43.83005097859341" lon="11.58042789142147"><ele>613.0</ele><time>2026-05-01T09:57:47Z</time></trkpt><trkpt lat="43.83002742548512" lon="11.580517708813938"><ele>613.0</ele><time>2026-05-01T09:57:55Z</time></trkpt><trkpt lat="43.82998792972484" lon="11.580629050483907"><ele>613.0</ele><time>2026-05-01T09:58:01Z</time></trkpt><trkpt lat="43.82994793512192" lon="11.58070169116381"><ele>613.0</ele><time>2026-05-01T09:58:13Z</time></trkpt><trkpt lat="43.8300197467526" lon="11.580742984570088"><ele>613.0</ele><time>2026-05-01T09:58:23.001Z</time></trkpt><trkpt lat="43.83008583628352" lon="11.580720577964916"><ele>613.0</ele><time>2026-05-01T09:58:37.001Z</time></trkpt><trkpt lat="43.830152979721426" lon="11.580745474589003"><ele>613.0</ele><time>2026-05-01T09:58:46.001Z</time></trkpt><trkpt lat="43.83022021581946" lon="11.580706605584323"><ele>614.0</ele><time>2026-05-01T09:58:59.001Z</time></trkpt><trkpt lat="43.83026185287743" lon="11.580622002191351"><ele>615.0</ele><time>2026-05-01T09:59:05.001Z</time></trkpt><trkpt lat="43.830295248480176" lon="11.580526215786762"><ele>616.0</ele><time>2026-05-01T09:59:11.001Z</time></trkpt><trkpt lat="43.83029993871325" lon="11.580435757959092"><ele>617.0</ele><time>2026-05-01T09:59:16.001Z</time></trkpt><trkpt lat="43.83024286283263" lon="11.580387938692658"><ele>618.0</ele><time>2026-05-01T09:59:22.001Z</time></trkpt><trkpt lat="43.83025964270644" lon="11.580301927543363"><ele>619.0</ele><time>2026-05-01T09:59:28.001Z</time></trkpt><trkpt lat="43.83020170606512" lon="11.580245725734626"><ele>620.0</ele><time>2026-05-01T09:59:35Z</time></trkpt><trkpt lat="43.830160989999904" lon="11.580161757587227"><ele>619.0</ele><time>2026-05-01T09:59:40Z</time></trkpt><trkpt lat="43.830141551770666" lon="11.580258546433246"><ele>618.0</ele><time>2026-05-01T09:59:45Z</time></trkpt><trkpt lat="43.83009832194553" lon="11.580354808300358"><ele>617.0</ele><time>2026-05-01T09:59:52Z</time></trkpt><trkpt lat="43.83005491511719" lon="11.58044159379721"><ele>616.0</ele><time>2026-05-01T10:00:03Z</time></trkpt><trkpt lat="43.83001622150622" lon="11.580539279530777"><ele>615.0</ele><time>2026-05-01T10:00:09Z</time></trkpt><trkpt lat="43.82998342925586" lon="11.580627289463553"><ele>614.0</ele><time>2026-05-01T10:00:16Z</time></trkpt><trkpt lat="43.82994863823939" lon="11.580700148076861"><ele>613.0</ele><time>2026-05-01T10:00:25Z</time></trkpt><trkpt lat="43.83001175978534" lon="11.580743784709812"><ele>613.0</ele><time>2026-05-01T10:00:38.001Z</time></trkpt><trkpt lat="43.830098161817865" lon="11.580709047000678"><ele>613.0</ele><time>2026-05-01T10:00:45.001Z</time></trkpt><trkpt lat="43.830182402186594" lon="11.580695125298131"><ele>613.0</ele><time>2026-05-01T10:00:52.001Z</time></trkpt><trkpt lat="43.83023243779266" lon="11.580629346099492"><ele>613.0</ele><time>2026-05-01T10:01:02.001Z</time></trkpt><trkpt lat="43.830292624798574" lon="11.580518236653377"><ele>613.0</ele><time>2026-05-01T10:01:12.001Z</time></trkpt><trkpt lat="43.830239340029166" lon="11.580425848312613"><ele>613.0</ele><time>2026-05-01T10:01:21.001Z</time></trkpt><trkpt lat="43.830256620792596" lon="11.580334175633016"><ele>613.0</ele><time>2026-05-01T10:01:26.001Z</time></trkpt><trkpt lat="43.83023392470693" lon="11.580249078573022"><ele>613.0</ele><time>2026-05-01T10:01:31.001Z</time></trkpt><trkpt lat="43.83017936009" lon="11.580204553253344"><ele>613.0</ele><time>2026-05-01T10:01:38Z</time></trkpt><trkpt lat="43.83013730556252" lon="11.58028453612102"><ele>613.0</ele><time>2026-05-01T10:01:47Z</time></trkpt><trkpt lat="43.830094826469356" lon="11.580362297985856"><ele>613.0</ele><time>2026-05-01T10:01:53Z</time></trkpt><trkpt lat="43.83006395876751" lon="11.580448502828068"><ele>613.0</ele><time>2026-05-01T10:02:05Z</time></trkpt><trkpt lat="43.830016155312116" lon="11.580534556873193"><ele>613.0</ele><time>2026-05-01T10:02:13Z</time></trkpt><trkpt lat="43.8300846124322" lon="11.580541274281314"><ele>613.0</ele><time>2026-05-01T10:02:58.001Z</time></trkpt><trkpt lat="43.8300018281403" lon="11.580569983331468"><ele>613.0</ele><time>2026-05-01T10:03:45Z</time></trkpt><trkpt lat="43.82998404490266" lon="11.580660686584393"><ele>613.0</ele><time>2026-05-01T10:03:51Z</time></trkpt><trkpt lat="43.829949700784994" lon="11.580741528346811"><ele>613.0</ele><time>2026-05-01T10:03:58Z</time></trkpt><trkpt lat="43.830054204977664" lon="11.580726416679145"><ele>613.0</ele><time>2026-05-01T10:04:20Z</time></trkpt><trkpt lat="43.83011600075141" lon="11.580707051863666"><ele>613.0</ele><time>2026-05-01T10:04:33Z</time></trkpt><trkpt lat="43.830182007791805" lon="11.580693100985753"><ele>614.0</ele><time>2026-05-01T10:04:43.001Z</time></trkpt><trkpt lat="43.83024487549262" lon="11.580636233071228"><ele>615.0</ele><time>2026-05-01T10:04:55.001Z</time></trkpt><trkpt lat="43.830271027880414" lon="11.580535840605949"><ele>616.0</ele><time>2026-05-01T10:05:07.001Z</time></trkpt><trkpt lat="43.83020538417329" lon="11.580567480973547"><ele>617.0</ele><time>2026-05-01T10:05:15.001Z</time></trkpt><trkpt lat="43.830247072960894" lon="11.580633042337688"><ele>618.0</ele><time>2026-05-01T10:05:32.001Z</time></trkpt><trkpt lat="43.83016972468809" lon="11.58057701350502"><ele>619.0</ele><time>2026-05-01T10:05:52Z</time></trkpt><trkpt lat="43.8302278411815" lon="11.5806411788909"><ele>620.0</ele><time>2026-05-01T10:06:03Z</time></trkpt><trkpt lat="43.83024832037405" lon="11.58055283023236"><ele>620.0</ele><time>2026-05-01T10:06:20Z</time></trkpt><trkpt lat="43.830189695255356" lon="11.580592835177146"><ele>620.0</ele><time>2026-05-01T10:06:31Z</time></trkpt><trkpt lat="43.83013507182716" lon="11.580655818302711"><ele>620.0</ele><time>2026-05-01T10:08:12Z</time></trkpt><trkpt lat="43.83016988231656" lon="11.580564955841279"><ele>620.0</ele><time>2026-05-01T10:08:57.001Z</time></trkpt><trkpt lat="43.83025650437272" lon="11.58056044420024"><ele>620.0</ele><time>2026-05-01T10:10:05Z</time></trkpt><trkpt lat="43.83028391260573" lon="11.580473072205667"><ele>620.0</ele><time>2026-05-01T10:10:28Z</time></trkpt><trkpt lat="43.830268595049425" lon="11.580388348499511"><ele>620.0</ele><time>2026-05-01T10:10:35Z</time></trkpt><trkpt lat="43.83025643690826" lon="11.580284713081024"><ele>619.0</ele><time>2026-05-01T10:10:44Z</time></trkpt><trkpt lat="43.83018837884531" lon="11.580234869740186"><ele>618.0</ele><time>2026-05-01T10:10:53Z</time></trkpt><trkpt lat="43.83012361913646" lon="11.58022520464779"><ele>617.0</ele><time>2026-05-01T10:11:04.001Z</time></trkpt><trkpt lat="43.83011246257534" lon="11.580317519467663"><ele>616.0</ele><time>2026-05-01T10:11:13.001Z</time></trkpt><trkpt lat="43.830081710783304" lon="11.580394839688276"><ele>615.0</ele><time>2026-05-01T10:11:24.001Z</time></trkpt><trkpt lat="43.830042672689274" lon="11.58047826933447"><ele>614.0</ele><time>2026-05-01T10:11:38.001Z</time></trkpt><trkpt lat="43.83004914669301" lon="11.580572848934851"><ele>613.0</ele><time>2026-05-01T10:11:46.001Z</time></trkpt><trkpt lat="43.829995302870756" lon="11.580631324860363"><ele>613.0</ele><time>2026-05-01T10:11:57.001Z</time></trkpt><trkpt lat="43.82995543818417" lon="11.580707545382475"><ele>613.0</ele><time>2026-05-01T10:12:04.001Z</time></trkpt><trkpt lat="43.830022065196964" lon="11.580716413479493"><ele>613.0</ele><time>2026-05-01T10:12:18.999Z</time></trkpt><trkpt lat="43.83009168733484" lon="11.580721390634329"><ele>613.0</ele><time>2026-05-01T10:12:25Z</time></trkpt><trkpt lat="43.83015819105747" lon="11.580691180818668"><ele>613.0</ele><time>2026-05-01T10:12:31Z</time></trkpt><trkpt lat="43.83016213676344" lon="11.580603389258624"><ele>613.0</ele><time>2026-05-01T10:12:38Z</time></trkpt><trkpt lat="43.8301411990761" lon="11.580694268054916"><ele>613.0</ele><time>2026-05-01T10:12:46Z</time></trkpt><trkpt lat="43.83020946052625" lon="11.58064663351745"><ele>614.0</ele><time>2026-05-01T10:13:01Z</time></trkpt><trkpt lat="43.830151905934265" lon="11.580691291519326"><ele>615.0</ele><time>2026-05-01T10:14:00.001Z</time></trkpt><trkpt lat="43.83015484543181" lon="11.580603185286405"><ele>616.0</ele><time>2026-05-01T10:14:57Z</time></trkpt><trkpt lat="43.83022735140489" lon="11.580571391555692"><ele>617.0</ele><time>2026-05-01T10:15:07Z</time></trkpt><trkpt lat="43.83029807424234" lon="11.580541442342563"><ele>618.0</ele><time>2026-05-01T10:15:11.001Z</time></trkpt><trkpt lat="43.83027834420004" lon="11.580441962358647"><ele>619.0</ele><time>2026-05-01T10:15:19.001Z</time></trkpt><trkpt lat="43.83021348033641" lon="11.580403540590735"><ele>620.0</ele><time>2026-05-01T10:15:23.001Z</time></trkpt><trkpt lat="43.830252979055054" lon="11.580320386573554"><ele>619.0</ele><time>2026-05-01T10:15:27.001Z</time></trkpt><trkpt lat="43.83020574139285" lon="11.580219808611911"><ele>618.0</ele><time>2026-05-01T10:15:37.001Z</time></trkpt><trkpt lat="43.83015069450125" lon="11.580271464210742"><ele>617.0</ele><time>2026-05-01T10:16:10.001Z</time></trkpt><trkpt lat="43.83011844874774" lon="11.580364418533343"><ele>616.0</ele><time>2026-05-01T10:16:16.002Z</time></trkpt><trkpt lat="43.83007236667252" lon="11.580426185187"><ele>615.0</ele><time>2026-05-01T10:16:31Z</time></trkpt><trkpt lat="43.83003943415448" lon="11.58052739192909"><ele>614.0</ele><time>2026-05-01T10:16:39Z</time></trkpt><trkpt lat="43.83002319171259" lon="11.580611751083252"><ele>613.0</ele><time>2026-05-01T10:16:44Z</time></trkpt><trkpt lat="43.829982502145704" lon="11.580702249691956"><ele>613.0</ele><time>2026-05-01T10:16:54Z</time></trkpt><trkpt lat="43.83007421875788" lon="11.580702360796918"><ele>613.0</ele><time>2026-05-01T10:17:18.001Z</time></trkpt><trkpt lat="43.83014558857205" lon="11.580669148937718"><ele>613.0</ele><time>2026-05-01T10:17:23.001Z</time></trkpt><trkpt lat="43.83015709904521" lon="11.580580646772592"><ele>613.0</ele><time>2026-05-01T10:17:31.001Z</time></trkpt><trkpt lat="43.8302205221749" lon="11.580552766354408"><ele>613.0</ele><time>2026-05-01T10:17:49.001Z</time></trkpt><trkpt lat="43.830294118407345" lon="11.580506437982658"><ele>613.0</ele><time>2026-05-01T10:17:57.001Z</time></trkpt><trkpt lat="43.830251728568" lon="11.580429303037532"><ele>613.0</ele><time>2026-05-01T10:18:03.001Z</time></trkpt><trkpt lat="43.83024336075" lon="11.580340715435963"><ele>613.0</ele><time>2026-05-01T10:18:08.002Z</time></trkpt><trkpt lat="43.830210137127374" lon="11.580258885918884"><ele>613.0</ele><time>2026-05-01T10:18:18.002Z</time></trkpt><trkpt lat="43.830148083443014" lon="11.580222703029422"><ele>613.0</ele><time>2026-05-01T10:18:27Z</time></trkpt><trkpt lat="43.830134866535026" lon="11.580316352895846"><ele>613.0</ele><time>2026-05-01T10:19:05.001Z</time></trkpt><trkpt lat="43.83010150557295" lon="11.580390759945148"><ele>613.0</ele><time>2026-05-01T10:19:15.001Z</time></trkpt><trkpt lat="43.830064934312894" lon="11.580466688558184"><ele>613.0</ele><time>2026-05-01T10:19:25.001Z</time></trkpt><trkpt lat="43.83006387283857" lon="11.580554919090874"><ele>613.0</ele><time>2026-05-01T10:19:35.001Z</time></trkpt><trkpt lat="43.83002015059093" lon="11.580641742034912"><ele>613.0</ele><time>2026-05-01T10:19:47.001Z</time></trkpt><trkpt lat="43.82997027499151" lon="11.58071153740422"><ele>613.0</ele><time>2026-05-01T10:19:53.001Z</time></trkpt><trkpt lat="43.830060173961094" lon="11.58071129801132"><ele>613.0</ele><time>2026-05-01T10:20:13.002Z</time></trkpt><trkpt lat="43.83012156532549" lon="11.580677387783362"><ele>613.0</ele><time>2026-05-01T10:20:19.002Z</time></trkpt><trkpt lat="43.83014232024791" lon="11.58059384436195"><ele>613.0</ele><time>2026-05-01T10:20:28.002Z</time></trkpt><trkpt lat="43.83020148682682" lon="11.580554037222582"><ele>613.0</ele><time>2026-05-01T10:20:34Z</time></trkpt><trkpt lat="43.830272988262145" lon="11.580551231636333"><ele>613.0</ele><time>2026-05-01T10:20:40Z</time></trkpt><trkpt lat="43.83030210310641" lon="11.580471584950137"><ele>613.0</ele><time>2026-05-01T10:20:46Z</time></trkpt><trkpt lat="43.83024052088866" lon="11.58044083889187"><ele>613.0</ele><time>2026-05-01T10:20:50Z</time></trkpt><trkpt lat="43.83024773071932" lon="11.580350754586455"><ele>613.0</ele><time>2026-05-01T10:20:57Z</time></trkpt><trkpt lat="43.83021168980621" lon="11.580268636876797"><ele>613.0</ele><time>2026-05-01T10:21:05Z</time></trkpt><trkpt lat="43.8301413267103" lon="11.58029697300353"><ele>613.0</ele><time>2026-05-01T10:21:15Z</time></trkpt><trkpt lat="43.83011251219478" lon="11.580377125438435"><ele>613.0</ele><time>2026-05-01T10:21:24Z</time></trkpt><trkpt lat="43.83006387958137" lon="11.580437918505712"><ele>613.0</ele><time>2026-05-01T10:21:56.001Z</time></trkpt><trkpt lat="43.83003037510191" lon="11.580516309630896"><ele>613.0</ele><time>2026-05-01T10:22:04.001Z</time></trkpt><trkpt lat="43.83004608767663" lon="11.58060222876187"><ele>613.0</ele><time>2026-05-01T10:22:14.001Z</time></trkpt><trkpt lat="43.830017263589376" lon="11.58068184356891"><ele>613.0</ele><time>2026-05-01T10:22:20.001Z</time></trkpt><trkpt lat="43.8299559875785" lon="11.580716126296014"><ele>613.0</ele><time>2026-05-01T10:22:34.001Z</time></trkpt><trkpt lat="43.83001919994209" lon="11.58070430139734"><ele>613.0</ele><time>2026-05-01T10:23:01Z</time></trkpt><trkpt lat="43.83008226857379" lon="11.580695562603866"><ele>613.0</ele><time>2026-05-01T10:23:07Z</time></trkpt><trkpt lat="43.83014831685644" lon="11.58066718957244"><ele>613.0</ele><time>2026-05-01T10:23:14Z</time></trkpt><trkpt lat="43.83016300553775" lon="11.580580179591374"><ele>613.0</ele><time>2026-05-01T10:23:21Z</time></trkpt><trkpt lat="43.8302324468047" lon="11.580534903922151"><ele>613.0</ele><time>2026-05-01T10:23:33Z</time></trkpt><trkpt lat="43.830280652455954" lon="11.580455962820473"><ele>613.0</ele><time>2026-05-01T10:23:37Z</time></trkpt><trkpt lat="43.830239213515995" lon="11.580388803203636"><ele>613.0</ele><time>2026-05-01T10:23:45Z</time></trkpt><trkpt lat="43.83022519674412" lon="11.580295236842117"><ele>613.0</ele><time>2026-05-01T10:23:55.001Z</time></trkpt><trkpt lat="43.83015559495066" lon="11.580295133289969"><ele>613.0</ele><time>2026-05-01T10:24:03.001Z</time></trkpt><trkpt lat="43.83011943405171" lon="11.580368010137628"><ele>613.0</ele><time>2026-05-01T10:24:12.001Z</time></trkpt><trkpt lat="43.830090350414466" lon="11.580445696387514"><ele>613.0</ele><time>2026-05-01T10:24:21.001Z</time></trkpt><trkpt lat="43.83006316332155" lon="11.58052823709797"><ele>613.0</ele><time>2026-05-01T10:24:32.001Z</time></trkpt><trkpt lat="43.83005741837201" lon="11.580621703954614"><ele>613.0</ele><time>2026-05-01T10:24:37.001Z</time></trkpt><trkpt lat="43.83000063083434" lon="11.580664293492136"><ele>613.0</ele><time>2026-05-01T10:24:43.001Z</time></trkpt><trkpt lat="43.83006145136774" lon="11.580698682690274"><ele>613.0</ele><time>2026-05-01T10:24:57.999Z</time></trkpt><trkpt lat="43.83015218791725" lon="11.580667521879922"><ele>613.0</ele><time>2026-05-01T10:25:06Z</time></trkpt><trkpt lat="43.830164824624354" lon="11.580565549959644"><ele>613.0</ele><time>2026-05-01T10:25:14Z</time></trkpt><trkpt lat="43.830237669447385" lon="11.580537608439244"><ele>613.0</ele><time>2026-05-01T10:25:25Z</time></trkpt><trkpt lat="43.83024515328137" lon="11.580443833685782"><ele>613.0</ele><time>2026-05-01T10:25:34Z</time></trkpt><trkpt lat="43.830241919662946" lon="11.580356271170421"><ele>613.0</ele><time>2026-05-01T10:25:40Z</time></trkpt><trkpt lat="43.83022160774427" lon="11.580271481948492"><ele>613.0</ele><time>2026-05-01T10:25:48.001Z</time></trkpt><trkpt lat="43.83015269447983" lon="11.58030325546332"><ele>613.0</ele><time>2026-05-01T10:25:54.001Z</time></trkpt><trkpt lat="43.83010862027271" lon="11.58037598559274"><ele>613.0</ele><time>2026-05-01T10:26:01.001Z</time></trkpt><trkpt lat="43.8300730649301" lon="11.580466028546297"><ele>613.0</ele><time>2026-05-01T10:26:07.001Z</time></trkpt><trkpt lat="43.830074816082025" lon="11.580574593392688"><ele>613.0</ele><time>2026-05-01T10:26:14.001Z</time></trkpt><trkpt lat="43.83001005156094" lon="11.580620546727356"><ele>613.0</ele><time>2026-05-01T10:26:21.001Z</time></trkpt><trkpt lat="43.82999480139825" lon="11.580713127369181"><ele>613.0</ele><time>2026-05-01T10:26:29.001Z</time></trkpt><trkpt lat="43.830059172128806" lon="11.580681429391188"><ele>613.0</ele><time>2026-05-01T10:26:39.001Z</time></trkpt><trkpt lat="43.83012247800573" lon="11.580660330524514"><ele>613.0</ele><time>2026-05-01T10:26:48.002Z</time></trkpt><trkpt lat="43.8301587519757" lon="11.5805803591658"><ele>613.0</ele><time>2026-05-01T10:27:06Z</time></trkpt><trkpt lat="43.830223288138804" lon="11.58054363642544"><ele>613.0</ele><time>2026-05-01T10:27:12Z</time></trkpt><trkpt lat="43.83028693859301" lon="11.580475241487834"><ele>613.0</ele><time>2026-05-01T10:27:22Z</time></trkpt><trkpt lat="43.83022039579111" lon="11.580413188667995"><ele>613.0</ele><time>2026-05-01T10:27:28Z</time></trkpt><trkpt lat="43.83023901880104" lon="11.580320848507817"><ele>613.0</ele><time>2026-05-01T10:27:34Z</time></trkpt><trkpt lat="43.83019002838251" lon="11.580265635479513"><ele>613.0</ele><time>2026-05-01T10:27:39Z</time></trkpt><trkpt lat="43.830136918462856" lon="11.580316836721568"><ele>613.0</ele><time>2026-05-01T10:27:46.001Z</time></trkpt><trkpt lat="43.83011774593489" lon="11.580403827837166"><ele>613.0</ele><time>2026-05-01T10:27:54.001Z</time></trkpt><trkpt lat="43.83007305911667" lon="11.580490476174644"><ele>613.0</ele><time>2026-05-01T10:28:01.001Z</time></trkpt><trkpt lat="43.83007734787775" lon="11.580579294754717"><ele>613.0</ele><time>2026-05-01T10:28:07.001Z</time></trkpt><trkpt lat="43.83002752249165" lon="11.580643615441534"><ele>613.0</ele><time>2026-05-01T10:28:15.001Z</time></trkpt><trkpt lat="43.830093383608904" lon="11.580656689780692"><ele>613.0</ele><time>2026-05-01T10:28:33.002Z</time></trkpt><trkpt lat="43.830156162307475" lon="11.5806345326909"><ele>613.0</ele><time>2026-05-01T10:28:39.002Z</time></trkpt><trkpt lat="43.8301598199897" lon="11.580527883461407"><ele>613.0</ele><time>2026-05-01T10:28:47.002Z</time></trkpt><trkpt lat="43.83022646174026" lon="11.580550102768425"><ele>613.0</ele><time>2026-05-01T10:28:55.002Z</time></trkpt><trkpt lat="43.83027270450721" lon="11.580471370615205"><ele>613.0</ele><time>2026-05-01T10:29:04Z</time></trkpt><trkpt lat="43.83022283890549" lon="11.580400041296445"><ele>613.0</ele><time>2026-05-01T10:29:08Z</time></trkpt><trkpt lat="43.83021158625737" lon="11.580311617270375"><ele>613.0</ele><time>2026-05-01T10:29:15Z</time></trkpt><trkpt lat="43.830146907127386" lon="11.580328650886834"><ele>613.0</ele><time>2026-05-01T10:29:27Z</time></trkpt><trkpt lat="43.83012295240779" lon="11.580422345246832"><ele>613.0</ele><time>2026-05-01T10:29:34Z</time></trkpt><trkpt lat="43.83012966347627" lon="11.580332679392018"><ele>613.0</ele><time>2026-05-01T10:30:17.001Z</time></trkpt><trkpt lat="43.83015752513816" lon="11.580244748673334"><ele>613.0</ele><time>2026-05-01T10:30:22.001Z</time></trkpt><trkpt lat="43.83017109066628" lon="11.580147108719187"><ele>613.0</ele><time>2026-05-01T10:30:27.001Z</time></trkpt><trkpt lat="43.83015252062255" lon="11.580240752645214"><ele>613.0</ele><time>2026-05-01T10:30:37.002Z</time></trkpt><trkpt lat="43.83015937273581" lon="11.580342439152615"><ele>613.0</ele><time>2026-05-01T10:30:43.002Z</time></trkpt><trkpt lat="43.83012523849811" lon="11.580419165414064"><ele>613.0</ele><time>2026-05-01T10:30:47.002Z</time></trkpt><trkpt lat="43.830071550980264" lon="11.58047434082946"><ele>613.0</ele><time>2026-05-01T10:30:50.002Z</time></trkpt><trkpt lat="43.830051197246796" lon="11.580600512732243"><ele>613.0</ele><time>2026-05-01T10:31:14Z</time></trkpt><trkpt lat="43.830015578373164" lon="11.580683803791079"><ele>613.0</ele><time>2026-05-01T10:31:20Z</time></trkpt><trkpt lat="43.8300969794633" lon="11.580662183835306"><ele>613.0</ele><time>2026-05-01T10:32:25.001Z</time></trkpt><trkpt lat="43.8300991754151" lon="11.580574747421618"><ele>613.0</ele><time>2026-05-01T10:32:41.002Z</time></trkpt><trkpt lat="43.83016723512896" lon="11.580534536466049"><ele>613.0</ele><time>2026-05-01T10:33:00.002Z</time></trkpt><trkpt lat="43.830247159165204" lon="11.580518403847762"><ele>613.0</ele><time>2026-05-01T10:33:11.001Z</time></trkpt><trkpt lat="43.83021914562812" lon="11.58042123839944"><ele>613.0</ele><time>2026-05-01T10:33:19.001Z</time></trkpt><trkpt lat="43.830250368467986" lon="11.580339771653335"><ele>613.0</ele><time>2026-05-01T10:33:26.001Z</time></trkpt><trkpt lat="43.83018967367429" lon="11.580263439444881"><ele>613.0</ele><time>2026-05-01T10:33:32.001Z</time></trkpt><trkpt lat="43.83015141825776" lon="11.580346240550158"><ele>613.0</ele><time>2026-05-01T10:33:39.001Z</time></trkpt><trkpt lat="43.83011340804354" lon="11.580429177391544"><ele>613.0</ele><time>2026-05-01T10:33:47.001Z</time></trkpt><trkpt lat="43.8300722625526" lon="11.580503729228512"><ele>613.0</ele><time>2026-05-01T10:33:51.001Z</time></trkpt><trkpt lat="43.83006705941473" lon="11.580591323876902"><ele>613.0</ele><time>2026-05-01T10:34:00.001Z</time></trkpt><trkpt lat="43.83010788677577" lon="11.580667251371883"><ele>613.0</ele><time>2026-05-01T10:34:12.001Z</time></trkpt><trkpt lat="43.83013703614647" lon="11.580565333365188"><ele>613.0</ele><time>2026-05-01T10:34:25.001Z</time></trkpt><trkpt lat="43.83020139200619" lon="11.580532878843483"><ele>613.0</ele><time>2026-05-01T10:34:36.002Z</time></trkpt><trkpt lat="43.83025561151603" lon="11.580476305628457"><ele>613.0</ele><time>2026-05-01T10:34:43.002Z</time></trkpt><trkpt lat="43.83020757092849" lon="11.580419195792107"><ele>613.0</ele><time>2026-05-01T10:34:49.002Z</time></trkpt><trkpt lat="43.83023158300083" lon="11.580337568765465"><ele>613.0</ele><time>2026-05-01T10:34:55.002Z</time></trkpt><trkpt lat="43.83018285239182" lon="11.580270236301157"><ele>613.0</ele><time>2026-05-01T10:35:01.002Z</time></trkpt><trkpt lat="43.83015284920322" lon="11.580362840978985"><ele>613.0</ele><time>2026-05-01T10:35:08.002Z</time></trkpt><trkpt lat="43.83011296637914" lon="11.580449169101255"><ele>613.0</ele><time>2026-05-01T10:35:15.001Z</time></trkpt><trkpt lat="43.83007741673856" lon="11.58052484004514"><ele>613.0</ele><time>2026-05-01T10:35:22Z</time></trkpt><trkpt lat="43.830054593467594" lon="11.580613061506734"><ele>613.0</ele><time>2026-05-01T10:35:29Z</time></trkpt><trkpt lat="43.83011869971605" lon="11.580575145946062"><ele>613.0</ele><time>2026-05-01T10:35:48.001Z</time></trkpt><trkpt lat="43.83017578006841" lon="11.580510663570614"><ele>613.0</ele><time>2026-05-01T10:35:53.001Z</time></trkpt><trkpt lat="43.83024052818326" lon="11.580527698574178"><ele>613.0</ele><time>2026-05-01T10:36:02.001Z</time></trkpt><trkpt lat="43.83021167969915" lon="11.580418462157683"><ele>613.0</ele><time>2026-05-01T10:36:09.001Z</time></trkpt><trkpt lat="43.830227541847265" lon="11.580324941074824"><ele>613.0</ele><time>2026-05-01T10:36:19.001Z</time></trkpt><trkpt lat="43.83016357256348" lon="11.580325217396723"><ele>613.0</ele><time>2026-05-01T10:36:26.001Z</time></trkpt><trkpt lat="43.83011831217355" lon="11.580403333161176"><ele>613.0</ele><time>2026-05-01T10:36:32.001Z</time></trkpt><trkpt lat="43.83009085204614" lon="11.580484718679717"><ele>613.0</ele><time>2026-05-01T10:36:39.001Z</time></trkpt><trkpt lat="43.83007538273107" lon="11.580580841208993"><ele>613.0</ele><time>2026-05-01T10:36:46.001Z</time></trkpt><trkpt lat="43.8300471132031" lon="11.580659069083051"><ele>613.0</ele><time>2026-05-01T10:36:56.002Z</time></trkpt><trkpt lat="43.83011763913484" lon="11.580615024132825"><ele>613.0</ele><time>2026-05-01T10:37:20Z</time></trkpt><trkpt lat="43.83014968338824" lon="11.580533348434003"><ele>613.0</ele><time>2026-05-01T10:37:40Z</time></trkpt><trkpt lat="43.83021195019041" lon="11.580495899569451"><ele>613.0</ele><time>2026-05-01T10:37:46Z</time></trkpt><trkpt lat="43.83018676943324" lon="11.58040475133265"><ele>613.0</ele><time>2026-05-01T10:37:57.001Z</time></trkpt><trkpt lat="43.83023615057705" lon="11.580347540315055"><ele>613.0</ele><time>2026-05-01T10:38:13.001Z</time></trkpt><trkpt lat="43.83017813712319" lon="11.580278722106009"><ele>613.0</ele><time>2026-05-01T10:38:20.001Z</time></trkpt><trkpt lat="43.83016687016858" lon="11.580368783344227"><ele>613.0</ele><time>2026-05-01T10:38:25.001Z</time></trkpt><trkpt lat="43.830115165102484" lon="11.580423026149832"><ele>613.0</ele><time>2026-05-01T10:38:32.001Z</time></trkpt><trkpt lat="43.830087876551026" lon="11.580513545723072"><ele>613.0</ele><time>2026-05-01T10:38:39.001Z</time></trkpt><trkpt lat="43.830079009559256" lon="11.58060058862537"><ele>613.0</ele><time>2026-05-01T10:38:45.001Z</time></trkpt><trkpt lat="43.830143258079296" lon="11.58053973129188"><ele>613.0</ele><time>2026-05-01T10:39:17.002Z</time></trkpt><trkpt lat="43.83021888214501" lon="11.580539318726215"><ele>613.0</ele><time>2026-05-01T10:39:24.002Z</time></trkpt><trkpt lat="43.83018901420096" lon="11.580441326261713"><ele>613.0</ele><time>2026-05-01T10:39:34Z</time></trkpt><trkpt lat="43.830222806142025" lon="11.580357101147703"><ele>613.0</ele><time>2026-05-01T10:39:40Z</time></trkpt><trkpt lat="43.83016261683607" lon="11.580330914219793"><ele>613.0</ele><time>2026-05-01T10:39:47Z</time></trkpt><trkpt lat="43.83012154237338" lon="11.580419207497851"><ele>613.0</ele><time>2026-05-01T10:39:53Z</time></trkpt><trkpt lat="43.83009435537408" lon="11.580504132901941"><ele>613.0</ele><time>2026-05-01T10:40:01Z</time></trkpt><trkpt lat="43.83007684522324" lon="11.58060261148086"><ele>613.0</ele><time>2026-05-01T10:40:07Z</time></trkpt><trkpt lat="43.83003785352458" lon="11.580698429407926"><ele>613.0</ele><time>2026-05-01T10:40:14.001Z</time></trkpt><trkpt lat="43.8300977699203" lon="11.580585454710414"><ele>613.0</ele><time>2026-05-01T10:40:40.001Z</time></trkpt><trkpt lat="43.83014171698763" lon="11.58051315545162"><ele>613.0</ele><time>2026-05-01T10:41:11.001Z</time></trkpt><trkpt lat="43.83021604543367" lon="11.580510058067985"><ele>613.0</ele><time>2026-05-01T10:41:21.001Z</time></trkpt><trkpt lat="43.83018906296677" lon="11.580409101692648"><ele>613.0</ele><time>2026-05-01T10:41:35Z</time></trkpt><trkpt lat="43.830211298255435" lon="11.580325336462689"><ele>613.0</ele><time>2026-05-01T10:41:40Z</time></trkpt><trkpt lat="43.830149093064" lon="11.580367436715436"><ele>613.0</ele><time>2026-05-01T10:41:49Z</time></trkpt><trkpt lat="43.83011166290898" lon="11.580445594762228"><ele>613.0</ele><time>2026-05-01T10:41:56Z</time></trkpt><trkpt lat="43.83011190476142" lon="11.580535913379073"><ele>613.0</ele><time>2026-05-01T10:42:04Z</time></trkpt><trkpt lat="43.83016758018908" lon="11.580482592642898"><ele>613.0</ele><time>2026-05-01T10:42:10Z</time></trkpt><trkpt lat="43.83023308458526" lon="11.580458604554192"><ele>613.0</ele><time>2026-05-01T10:42:22Z</time></trkpt><trkpt lat="43.83019611036794" lon="11.58036928087731"><ele>613.0</ele><time>2026-05-01T10:42:29.001Z</time></trkpt><trkpt lat="43.83013856719088" lon="11.580409407857067"><ele>613.0</ele><time>2026-05-01T10:42:48.001Z</time></trkpt><trkpt lat="43.83009530188036" lon="11.580486072225495"><ele>613.0</ele><time>2026-05-01T10:42:55.001Z</time></trkpt><trkpt lat="43.830159557466594" lon="11.580486854593161"><ele>613.0</ele><time>2026-05-01T10:43:05.001Z</time></trkpt><trkpt lat="43.830228412719514" lon="11.58045667401502"><ele>613.0</ele><time>2026-05-01T10:43:13.001Z</time></trkpt><trkpt lat="43.83017974277422" lon="11.580397459531426"><ele>613.0</ele><time>2026-05-01T10:43:19.001Z</time></trkpt><trkpt lat="43.83020717676984" lon="11.5803103592977"><ele>613.0</ele><time>2026-05-01T10:43:26.001Z</time></trkpt><trkpt lat="43.83015461943005" lon="11.580363223415931"><ele>613.0</ele><time>2026-05-01T10:43:32.001Z</time></trkpt><trkpt lat="43.83012751926649" lon="11.580454284907583"><ele>613.0</ele><time>2026-05-01T10:43:43Z</time></trkpt><trkpt lat="43.830206966210596" lon="11.580452874028946"><ele>613.0</ele><time>2026-05-01T10:44:00Z</time></trkpt><trkpt lat="43.8302698130092" lon="11.58044666516355"><ele>613.0</ele><time>2026-05-01T10:44:03Z</time></trkpt><trkpt lat="43.83018747998006" lon="11.580448122935408"><ele>613.0</ele><time>2026-05-01T10:44:07Z</time></trkpt><trkpt lat="43.83019031408736" lon="11.58035659652686"><ele>613.0</ele><time>2026-05-01T10:44:40.001Z</time></trkpt><trkpt lat="43.83013776583644" lon="11.580412753515686"><ele>613.0</ele><time>2026-05-01T10:44:54.001Z</time></trkpt><trkpt lat="43.830111914355285" lon="11.5804986104275"><ele>613.0</ele><time>2026-05-01T10:45:01.001Z</time></trkpt><trkpt lat="43.830177102477116" lon="11.580469893364794"><ele>613.0</ele><time>2026-05-01T10:45:11.001Z</time></trkpt><trkpt lat="43.8301774374582" lon="11.580378714532666"><ele>613.0</ele><time>2026-05-01T10:45:26.001Z</time></trkpt><trkpt lat="43.830132623273286" lon="11.580445313668843"><ele>613.0</ele><time>2026-05-01T10:45:42.001Z</time></trkpt><trkpt lat="43.83021875638749" lon="11.580469422656387"><ele>613.0</ele><time>2026-05-01T10:45:58Z</time></trkpt><trkpt lat="43.83018133856017" lon="11.580393467193392"><ele>613.0</ele><time>2026-05-01T10:46:10Z</time></trkpt><trkpt lat="43.830126760723424" lon="11.580471333915378"><ele>613.0</ele><time>2026-05-01T10:46:29Z</time></trkpt><trkpt lat="43.83019600799959" lon="11.580486195995858"><ele>613.0</ele><time>2026-05-01T10:46:49.001Z</time></trkpt><trkpt lat="43.830132551186374" lon="11.58051227037379"><ele>614.0</ele><time>2026-05-01T10:47:06.001Z</time></trkpt><trkpt lat="43.830209710287605" lon="11.580484344075497"><ele>615.0</ele><time>2026-05-01T10:47:20.001Z</time></trkpt><trkpt lat="43.830146401898055" lon="11.580474964143216"><ele>616.0</ele><time>2026-05-01T10:47:44.002Z</time></trkpt><trkpt lat="43.830196960754584" lon="11.580416179857776"><ele>617.0</ele><time>2026-05-01T10:47:57Z</time></trkpt><trkpt lat="43.83020270090869" lon="11.580315210057304"><ele>618.0</ele><time>2026-05-01T10:48:07Z</time></trkpt><trkpt lat="43.83017440515395" lon="11.580395337566332"><ele>619.0</ele><time>2026-05-01T10:48:17Z</time></trkpt><trkpt lat="43.83016342330792" lon="11.580484690442919"><ele>620.0</ele><time>2026-05-01T10:48:39Z</time></trkpt><trkpt lat="43.830173793633925" lon="11.580391290036312"><ele>619.0</ele><time>2026-05-01T10:48:57.001Z</time></trkpt><trkpt lat="43.83020423239504" lon="11.580313929437919"><ele>618.0</ele><time>2026-05-01T10:49:14.001Z</time></trkpt><trkpt lat="43.83015671896223" lon="11.580247006818002"><ele>617.0</ele><time>2026-05-01T10:49:30.001Z</time></trkpt><trkpt lat="43.83015769347666" lon="11.580154050569703"><ele>616.0</ele><time>2026-05-01T10:49:38.001Z</time></trkpt><trkpt lat="43.8301069610789" lon="11.580211280768797"><ele>615.0</ele><time>2026-05-01T10:49:50.001Z</time></trkpt><trkpt lat="43.83005760253943" lon="11.58029216991031"><ele>614.0</ele><time>2026-05-01T10:49:57Z</time></trkpt><trkpt lat="43.83003521769296" lon="11.580389559937808"><ele>613.0</ele><time>2026-05-01T10:50:06Z</time></trkpt><trkpt lat="43.82999247816699" lon="11.580491827342712"><ele>613.0</ele><time>2026-05-01T10:50:16Z</time></trkpt><trkpt lat="43.83000111688318" lon="11.580386544313413"><ele>613.0</ele><time>2026-05-01T10:51:23.001Z</time></trkpt><trkpt lat="43.83004667694374" lon="11.580320692353737"><ele>613.0</ele><time>2026-05-01T10:51:32.001Z</time></trkpt><trkpt lat="43.83006966358693" lon="11.580238327678911"><ele>613.0</ele><time>2026-05-01T10:52:42Z</time></trkpt><trkpt lat="43.830113719976396" lon="11.580164811076763"><ele>613.0</ele><time>2026-05-01T10:52:51.001Z</time></trkpt><trkpt lat="43.83018261388096" lon="11.580192479466444"><ele>613.0</ele><time>2026-05-01T10:53:18.001Z</time></trkpt><trkpt lat="43.83023518801568" lon="11.58024093988987"><ele>613.0</ele><time>2026-05-01T10:53:24.001Z</time></trkpt><trkpt lat="43.83027105482432" lon="11.580318128343073"><ele>614.0</ele><time>2026-05-01T10:53:31.001Z</time></trkpt><trkpt lat="43.830277374857566" lon="11.58040612720121"><ele>615.0</ele><time>2026-05-01T10:53:41.001Z</time></trkpt><trkpt lat="43.830318511379375" lon="11.580473902271493"><ele>616.0</ele><time>2026-05-01T10:53:49.001Z</time></trkpt><trkpt lat="43.830362415031466" lon="11.580410413823998"><ele>617.0</ele><time>2026-05-01T10:53:58.001Z</time></trkpt><trkpt lat="43.830378282920336" lon="11.58031236088677"><ele>618.0</ele><time>2026-05-01T10:54:11Z</time></trkpt><trkpt lat="43.83034021333821" lon="11.58039615153988"><ele>619.0</ele><time>2026-05-01T10:54:28Z</time></trkpt><trkpt lat="43.83035477653871" lon="11.580300613979578"><ele>620.0</ele><time>2026-05-01T10:54:54.001Z</time></trkpt><trkpt lat="43.83033183408181" lon="11.580397944229276"><ele>620.0</ele><time>2026-05-01T10:55:30.001Z</time></trkpt><trkpt lat="43.8303796514471" lon="11.580321115651294"><ele>620.0</ele><time>2026-05-01T10:55:50.001Z</time></trkpt><trkpt lat="43.83033721810939" lon="11.580387960395319"><ele>620.0</ele><time>2026-05-01T10:56:06.002Z</time></trkpt><trkpt lat="43.830368820643955" lon="11.58026579492237"><ele>620.0</ele><time>2026-05-01T10:56:30Z</time></trkpt><trkpt lat="43.83033922501494" lon="11.580399396543255"><ele>620.0</ele><time>2026-05-01T10:57:08.001Z</time></trkpt><trkpt lat="43.83033749046242" lon="11.580506399113963"><ele>620.0</ele><time>2026-05-01T10:57:15.001Z</time></trkpt><trkpt lat="43.83032439267449" lon="11.5804110128549"><ele>620.0</ele><time>2026-05-01T10:57:18.001Z</time></trkpt><trkpt lat="43.83036384183778" lon="11.580340034680617"><ele>620.0</ele><time>2026-05-01T10:57:28.001Z</time></trkpt><trkpt lat="43.83031483594192" lon="11.580395705179324"><ele>620.0</ele><time>2026-05-01T10:57:56.001Z</time></trkpt><trkpt lat="43.83031100837858" lon="11.580278640734898"><ele>620.0</ele><time>2026-05-01T10:58:08.001Z</time></trkpt><trkpt lat="43.83039255046168" lon="11.580301533419863"><ele>620.0</ele><time>2026-05-01T10:58:21Z</time></trkpt><trkpt lat="43.8303308593469" lon="11.58033186069231"><ele>620.0</ele><time>2026-05-01T10:58:33Z</time></trkpt><trkpt lat="43.83029015240192" lon="11.580402382454366"><ele>620.0</ele><time>2026-05-01T10:58:45Z</time></trkpt><trkpt lat="43.83032259413135" lon="11.580320873182197"><ele>620.0</ele><time>2026-05-01T10:59:05Z</time></trkpt><trkpt lat="43.83029627604031" lon="11.580402535478838"><ele>620.0</ele><time>2026-05-01T10:59:27.001Z</time></trkpt><trkpt lat="43.83032738699392" lon="11.58031471503975"><ele>620.0</ele><time>2026-05-01T11:00:12.001Z</time></trkpt><trkpt lat="43.8303929508992" lon="11.580272111256825"><ele>620.0</ele><time>2026-05-01T11:00:26Z</time></trkpt><trkpt lat="43.830319759451264" lon="11.580305122517776"><ele>620.0</ele><time>2026-05-01T11:00:56Z</time></trkpt><trkpt lat="43.83036292953292" lon="11.580234940627962"><ele>620.0</ele><time>2026-05-01T11:01:20.001Z</time></trkpt><trkpt lat="43.83030130186175" lon="11.580293716214818"><ele>620.0</ele><time>2026-05-01T11:01:26.001Z</time></trkpt><trkpt lat="43.830236483794415" lon="11.580269734005773"><ele>617.0</ele><time>2026-05-01T11:02:51Z</time></trkpt><trkpt lat="43.830182769676256" lon="11.580210920704271"><ele>614.0</ele><time>2026-05-01T11:02:58Z</time></trkpt><trkpt lat="43.83012134000232" lon="11.58015498784824"><ele>611.0</ele><time>2026-05-01T11:03:10Z</time></trkpt><trkpt lat="43.830193452675665" lon="11.580248788707987"><ele>608.0</ele><time>2026-05-01T11:03:21.001Z</time></trkpt><trkpt lat="43.83025242598152" lon="11.580312178509274"><ele>605.0</ele><time>2026-05-01T11:03:26.001Z</time></trkpt><trkpt lat="43.83019846799997" lon="11.580243214654143"><ele>602.0</ele><time>2026-05-01T11:03:38.001Z</time></trkpt><trkpt lat="43.83014559049573" lon="11.580191369175203"><ele>602.0</ele><time>2026-05-01T11:03:44.001Z</time></trkpt><trkpt lat="43.830208473565186" lon="11.580263490306828"><ele>602.0</ele><time>2026-05-01T11:03:59.001Z</time></trkpt><trkpt lat="43.830268455559256" lon="11.580310846713429"><ele>602.0</ele><time>2026-05-01T11:04:12.001Z</time></trkpt><trkpt lat="43.830230839612184" lon="11.580400342956604"><ele>602.0</ele><time>2026-05-01T11:05:03Z</time></trkpt><trkpt lat="43.83019984148403" lon="11.580489663558726"><ele>602.0</ele><time>2026-05-01T11:05:08Z</time></trkpt><trkpt lat="43.83018301276641" lon="11.580577777321814"><ele>602.0</ele><time>2026-05-01T11:05:14Z</time></trkpt><trkpt lat="43.830113744193724" lon="11.580562586754818"><ele>602.0</ele><time>2026-05-01T11:05:31Z</time></trkpt><trkpt lat="43.83012624512255" lon="11.580451937059763"><ele>602.0</ele><time>2026-05-01T11:05:36Z</time></trkpt><trkpt lat="43.83015189027671" lon="11.580368009943756"><ele>602.0</ele><time>2026-05-01T11:05:41Z</time></trkpt><trkpt lat="43.830149958508045" lon="11.580268086463251"><ele>602.0</ele><time>2026-05-01T11:05:47.001Z</time></trkpt><trkpt lat="43.83014959621444" lon="11.580168992047524"><ele>602.0</ele><time>2026-05-01T11:05:54.001Z</time></trkpt><trkpt lat="43.83021570755387" lon="11.580133748042018"><ele>602.0</ele><time>2026-05-01T11:06:03.001Z</time></trkpt><trkpt lat="43.83019044748399" lon="11.580053064570805"><ele>602.0</ele><time>2026-05-01T11:06:11.001Z</time></trkpt><trkpt lat="43.830149061992856" lon="11.579963292150213"><ele>602.0</ele><time>2026-05-01T11:06:16.001Z</time></trkpt><trkpt lat="43.830104890332024" lon="11.579886132632923"><ele>601.5714285714286</ele><time>2026-05-01T11:06:22.001Z</time></trkpt><trkpt lat="43.83005939701258" lon="11.57980740070126"><ele>601.1428571428571</ele><time>2026-05-01T11:06:27.001Z</time></trkpt><trkpt lat="43.82999610622146" lon="11.579784054501511"><ele>600.7142857142858</ele><time>2026-05-01T11:06:32.001Z</time></trkpt><trkpt lat="43.82992579156733" lon="11.579783983775009"><ele>600.2857142857142</ele><time>2026-05-01T11:06:38.001Z</time></trkpt><trkpt lat="43.8298654007501" lon="11.579825564330793"><ele>599.8571428571429</ele><time>2026-05-01T11:06:45.999Z</time></trkpt><trkpt lat="43.82983775818886" lon="11.579917319168112"><ele>599.4285714285714</ele><time>2026-05-01T11:06:50.999Z</time></trkpt><trkpt lat="43.82977363038569" lon="11.579978067794976"><ele>599.0</ele><time>2026-05-01T11:06:56.999Z</time></trkpt><trkpt lat="43.829706791035754" lon="11.580040477642935"><ele>599.0</ele><time>2026-05-01T11:07:02.999Z</time></trkpt><trkpt lat="43.8296465527565" lon="11.580066102678737"><ele>599.0</ele><time>2026-05-01T11:07:08Z</time></trkpt><trkpt lat="43.82958190641703" lon="11.580075004827842"><ele>599.0</ele><time>2026-05-01T11:07:11Z</time></trkpt><trkpt lat="43.829535548714865" lon="11.580010945133147"><ele>599.0</ele><time>2026-05-01T11:07:15Z</time></trkpt><trkpt lat="43.82951074660225" lon="11.579929967637494"><ele>599.0</ele><time>2026-05-01T11:07:20Z</time></trkpt><trkpt lat="43.82946807461967" lon="11.57985284998391"><ele>599.0</ele><time>2026-05-01T11:07:24Z</time></trkpt><trkpt lat="43.829426257925164" lon="11.579773171221598"><ele>599.0</ele><time>2026-05-01T11:07:30Z</time></trkpt><trkpt lat="43.82937025888773" lon="11.57972562109905"><ele>599.0</ele><time>2026-05-01T11:07:37Z</time></trkpt><trkpt lat="43.82942012082189" lon="11.579671066232292"><ele>599.0</ele><time>2026-05-01T11:07:40Z</time></trkpt><trkpt lat="43.829465921799674" lon="11.579605281920955"><ele>599.0</ele><time>2026-05-01T11:08:09.001Z</time></trkpt><trkpt lat="43.8295284162843" lon="11.579543433636461"><ele>599.0</ele><time>2026-05-01T11:08:15.001Z</time></trkpt><trkpt lat="43.82959857079052" lon="11.57949063553965"><ele>599.0</ele><time>2026-05-01T11:08:21.001Z</time></trkpt><trkpt lat="43.82964549581663" lon="11.579416989991147"><ele>599.0</ele><time>2026-05-01T11:08:31.001Z</time></trkpt><trkpt lat="43.82964636001223" lon="11.579311905868966"><ele>599.0</ele><time>2026-05-01T11:08:48.001Z</time></trkpt><trkpt lat="43.82963382685704" lon="11.579403434856454"><ele>584.0</ele><time>2026-05-01T11:10:29.001Z</time></trkpt><trkpt lat="43.829648952655454" lon="11.57949065915462"><ele>584.0</ele><time>2026-05-01T11:10:34.001Z</time></trkpt><trkpt lat="43.82972160286739" lon="11.579488386918094"><ele>584.0</ele><time>2026-05-01T11:10:43.001Z</time></trkpt><trkpt lat="43.82970041491524" lon="11.579573779259576"><ele>599.0</ele><time>2026-05-01T11:10:55.999Z</time></trkpt></trkseg></trk></gpx>